createdAt,value
2022-08-09T00:01:54.443Z,84.76
2022-08-09T00:04:33.713Z,85.73
2022-08-09T00:07:07.874Z,86.53
2022-08-09T00:09:39.978Z,86.50
2022-08-09T00:12:15.601Z,86.65
2022-08-09T00:14:56.650Z,86.27
2022-08-09T00:18:07.745Z,86.72
2022-08-09T00:20:15.305Z,87.84
2022-08-09T00:22:43.234Z,87.93
2022-08-09T00:25:23.375Z,86.91
2022-08-09T00:28:00.540Z,86.44
2022-08-09T00:30:33.879Z,86.71
2022-08-09T00:33:02.583Z,87.32
2022-08-09T00:35:43.360Z,86.80
2022-08-09T00:38:13.895Z,87.37
2022-08-09T00:40:52.903Z,86.99
2022-08-09T00:44:11.160Z,86.39
2022-08-09T00:46:28.410Z,87.33
2022-08-09T00:49:00.452Z,87.87
2022-08-09T00:51:33.875Z,88.46
2022-08-09T00:54:10.620Z,88.54
2022-08-09T00:56:38.392Z,87.64
2022-08-09T00:59:08.156Z,88.08
2022-08-09T01:01:45.234Z,86.80
2022-08-09T01:04:35.392Z,87.95
2022-08-09T01:08:05.584Z,88.07
2022-08-09T01:11:21.963Z,88.98
2022-08-09T01:14:18.414Z,89.05
2022-08-09T01:16:55.472Z,88.83
2022-08-09T01:20:20.729Z,89.23
2022-08-09T01:24:02.237Z,90.23
2022-08-09T01:26:36.782Z,89.79
2022-08-09T01:29:07.251Z,90.14
2022-08-09T01:32:28.199Z,89.41
2022-08-09T01:34:29.473Z,89.63
2022-08-09T01:37:00.888Z,89.62
2022-08-09T01:39:35.742Z,89.28
2022-08-09T01:42:11.248Z,88.97
2022-08-09T01:44:41.547Z,90.41
2022-08-09T01:47:11.583Z,89.63
2022-08-09T01:49:43.158Z,89.50
2022-08-09T01:52:21.250Z,89.68
2022-08-09T01:54:57.761Z,89.88
2022-08-09T01:57:40.335Z,89.77
2022-08-09T02:00:34.666Z,89.64
2022-08-09T02:03:07.458Z,89.02
2022-08-09T02:06:03.792Z,89.16
2022-08-09T02:08:58.053Z,89.16
2022-08-09T02:11:40.532Z,89.20
2022-08-09T02:14:25.425Z,89.36
2022-08-09T02:17:15.553Z,89.19
2022-08-09T02:19:46.215Z,88.83
2022-08-09T02:22:46.407Z,89.44
2022-08-09T02:25:24.603Z,89.81
2022-08-09T02:28:24.276Z,89.12
2022-08-09T02:31:06.576Z,90.51
2022-08-09T02:34:06.375Z,90.52
2022-08-09T02:36:42.342Z,90.80
2022-08-09T02:39:33.425Z,89.85
2022-08-09T02:42:29.344Z,89.50
2022-08-09T02:45:15.360Z,88.76
2022-08-09T02:47:59.225Z,90.70
2022-08-09T02:50:39.949Z,89.63
2022-08-09T02:53:26.870Z,89.17
2022-08-09T02:55:59.232Z,88.46
2022-08-09T02:58:37.137Z,87.78
2022-08-09T03:01:11.249Z,88.19
2022-08-09T03:04:16.677Z,88.55
2022-08-09T03:06:42.872Z,89.05
2022-08-09T03:09:15.780Z,89.65
2022-08-09T03:12:05.944Z,89.58
2022-08-09T03:14:39.667Z,89.73
2022-08-09T03:17:20.534Z,90.09
2022-08-09T03:20:05.281Z,89.59
2022-08-09T03:22:44.742Z,89.62
2022-08-09T03:25:26.379Z,89.82
2022-08-09T03:28:05.494Z,90.38
2022-08-09T03:30:41.125Z,90.90
2022-08-09T03:33:19.250Z,90.68
2022-08-09T03:36:13.484Z,90.34
2022-08-09T03:38:44.762Z,90.14
2022-08-09T03:41:16.715Z,91.12
2022-08-09T03:44:03.606Z,90.46
2022-08-09T03:46:36.515Z,90.14
2022-08-09T03:49:08.656Z,89.82
2022-08-09T03:51:56.331Z,90.01
2022-08-09T03:54:38.559Z,89.06
2022-08-09T03:57:20.018Z,89.17
2022-08-09T03:59:54.651Z,89.25
2022-08-09T04:02:29.689Z,88.82
2022-08-09T04:05:05.693Z,88.63
2022-08-09T04:07:52.536Z,89.08
2022-08-09T04:10:29.578Z,88.38
2022-08-09T04:13:04.050Z,88.15
2022-08-09T04:16:17.173Z,88.78
2022-08-09T04:18:22.272Z,88.71
2022-08-09T04:20:53.746Z,89.01
2022-08-09T04:23:25.029Z,88.98
2022-08-09T04:25:55.984Z,87.65
2022-08-09T04:28:33.483Z,88.36
2022-08-09T04:31:08.588Z,87.60
2022-08-09T04:33:53.113Z,88.38
2022-08-09T04:36:29.942Z,87.66
2022-08-09T04:39:04.215Z,87.85
2022-08-09T04:41:43.437Z,87.63
2022-08-09T04:44:14.596Z,87.57
2022-08-09T04:46:59.228Z,87.15
2022-08-09T04:49:53.049Z,86.80
2022-08-09T04:52:28.049Z,87.07
2022-08-09T04:55:00.174Z,85.79
2022-08-09T04:57:58.828Z,85.87
2022-08-09T05:00:19.133Z,85.96
2022-08-09T05:02:52.529Z,85.40
2022-08-09T05:05:32.471Z,86.20
2022-08-09T05:08:14.785Z,85.08
2022-08-09T05:10:44.575Z,86.00
2022-08-09T05:13:14.565Z,86.01
2022-08-09T05:15:52.113Z,85.30
2022-08-09T05:18:55.057Z,84.69
2022-08-09T05:21:23.090Z,84.65
2022-08-09T05:24:00.307Z,84.72
2022-08-09T05:26:37.376Z,84.10
2022-08-09T05:29:23.934Z,83.79
2022-08-09T05:31:57.649Z,83.75
2022-08-09T05:34:32.643Z,83.57
2022-08-09T05:37:07.238Z,84.80
2022-08-09T05:39:43.797Z,83.70
2022-08-09T05:42:17.598Z,83.65
2022-08-09T05:44:52.531Z,82.03
2022-08-09T05:47:23.868Z,82.39
2022-08-09T05:50:30.097Z,82.43
2022-08-09T05:52:53.787Z,82.27
2022-08-09T05:55:24.122Z,81.03
2022-08-09T05:57:56.650Z,78.22
2022-08-09T06:00:31.248Z,77.43
2022-08-09T06:03:10.847Z,77.42
2022-08-09T06:05:57.662Z,77.07
2022-08-09T06:08:33.402Z,73.27
2022-08-09T06:11:03.160Z,74.48
2022-08-09T06:13:47.541Z,72.55
2022-08-09T06:16:16.351Z,76.02
2022-08-09T06:18:45.553Z,76.69
2022-08-09T06:21:16.335Z,73.02
2022-08-09T06:23:58.857Z,72.77
2022-08-09T06:26:31.557Z,71.93
2022-08-09T06:29:05.120Z,74.26
2022-08-09T06:31:40.126Z,72.80
2022-08-09T06:34:26.351Z,73.03
2022-08-09T06:36:59.662Z,73.27
2022-08-09T06:39:57.422Z,71.00
2022-08-09T06:42:24.682Z,71.78
2022-08-09T06:44:57.463Z,70.48
2022-08-09T06:47:30.251Z,69.50
2022-08-09T06:50:14.050Z,69.46
2022-08-09T06:52:49.135Z,63.30
2022-08-09T06:55:24.267Z,63.23
2022-08-09T06:58:02.844Z,62.41
2022-08-09T07:00:50.510Z,59.14
2022-08-09T07:03:28.405Z,60.75
2022-08-09T07:06:04.893Z,59.72
2022-08-09T07:08:39.546Z,58.28
2022-08-09T07:11:12.604Z,55.28
2022-08-09T07:13:44.957Z,55.43
2022-08-09T07:16:49.809Z,57.60
2022-08-09T07:19:55.556Z,56.82
2022-08-09T07:22:34.819Z,53.25
2022-08-09T07:25:09.780Z,56.43
2022-08-09T07:27:53.304Z,58.45
2022-08-09T07:31:30.593Z,56.98
2022-08-09T07:34:20.711Z,53.24
2022-08-09T07:46:40.918Z,54.47
2022-08-09T07:53:13.172Z,53.24
2022-08-09T07:56:03.320Z,55.21
2022-08-09T07:58:35.344Z,51.53
2022-08-09T08:01:10.926Z,51.54
2022-08-09T08:03:40.988Z,50.02
2022-08-09T08:06:14.372Z,51.52
2022-08-09T08:09:02.415Z,52.68
2022-08-09T08:12:09.830Z,56.51
2022-08-09T08:14:24.005Z,56.72
2022-08-09T08:17:07.864Z,56.99
2022-08-09T08:19:37.867Z,53.61
2022-08-09T08:22:06.579Z,54.96
2022-08-09T08:24:40.054Z,54.56
2022-08-09T08:27:16.517Z,53.00
2022-08-09T08:29:50.070Z,53.24
2022-08-09T08:32:29.150Z,54.45
2022-08-09T08:34:59.723Z,50.52
2022-08-09T08:37:40.795Z,54.15
2022-08-09T08:40:12.210Z,51.20
2022-08-09T08:42:46.998Z,49.51
2022-08-09T08:45:51.427Z,49.26
2022-08-09T08:48:24.113Z,50.12
2022-08-09T08:50:59.253Z,49.02
2022-08-09T08:53:32.291Z,49.33
2022-08-09T08:56:16.882Z,48.55
2022-08-09T08:58:56.913Z,54.53
2022-08-09T09:01:44.687Z,48.70
2022-08-09T09:04:15.077Z,47.53
2022-08-09T09:07:00.963Z,47.33
2022-08-09T09:09:58.417Z,47.14
2022-08-09T09:12:29.279Z,46.96
2022-08-09T09:15:02.585Z,51.15
2022-08-09T09:17:49.417Z,47.85
2022-08-09T09:20:20.603Z,47.62
2022-08-09T09:23:02.056Z,47.72
2022-08-09T09:26:04.401Z,47.11
2022-08-09T09:29:01.802Z,47.10
2022-08-09T09:32:03.523Z,47.73
2022-08-09T09:34:18.417Z,47.13
2022-08-09T09:36:54.131Z,49.39
2022-08-09T09:39:50.440Z,48.33
2022-08-09T09:42:29.689Z,47.02
2022-08-09T09:45:08.323Z,44.89
2022-08-09T09:47:47.687Z,46.94
2022-08-09T09:50:23.050Z,45.32
2022-08-09T09:52:56.716Z,44.80
2022-08-09T09:55:31.356Z,45.36
2022-08-09T09:58:17.346Z,45.84
2022-08-09T10:00:58.791Z,45.04
2022-08-09T10:03:57.849Z,43.32
2022-08-09T10:06:43.507Z,43.26
2022-08-09T10:09:23.167Z,43.75
2022-08-09T10:12:35.840Z,45.21
2022-08-09T10:15:50.802Z,44.40
2022-08-09T10:18:12.864Z,45.57
2022-08-09T10:20:45.092Z,44.61
2022-08-09T10:23:20.432Z,43.40
2022-08-09T10:26:07.839Z,42.71
2022-08-09T10:28:48.595Z,42.97
2022-08-09T10:34:32.441Z,42.98
2022-08-09T10:37:00.933Z,43.25
2022-08-09T10:39:40.724Z,44.34
2022-08-09T10:42:18.720Z,44.00
2022-08-09T10:45:11.928Z,42.38
2022-08-09T10:48:30.209Z,42.83
2022-08-09T10:51:53.044Z,42.65
2022-08-09T10:54:27.009Z,43.12
2022-08-09T10:57:15.509Z,40.84
2022-08-09T10:59:57.360Z,42.92
2022-08-09T11:03:18.034Z,44.63
2022-08-09T11:05:31.010Z,42.35
2022-08-09T11:08:47.982Z,42.96
2022-08-09T11:11:21.958Z,42.05
2022-08-09T11:14:35.578Z,41.06
2022-08-09T11:17:26.553Z,42.78
2022-08-09T11:20:22.121Z,43.48
2022-08-09T11:22:56.660Z,43.24
2022-08-09T11:25:45.427Z,43.30
2022-08-09T11:28:56.351Z,43.67
2022-08-09T11:31:49.668Z,44.79
2022-08-09T11:34:54.674Z,43.04
2022-08-09T11:37:40.514Z,41.98
2022-08-09T11:40:33.921Z,42.35
2022-08-09T11:43:03.865Z,42.83
2022-08-09T11:45:42.572Z,43.91
2022-08-09T11:48:26.815Z,42.22
2022-08-09T11:52:49.142Z,42.11
2022-08-09T11:54:27.472Z,41.52
2022-08-09T11:57:56.448Z,42.16
2022-08-09T12:00:32.814Z,43.22
2022-08-09T12:03:10.021Z,43.85
2022-08-09T12:05:55.663Z,43.76
2022-08-09T12:08:26.925Z,42.92
2022-08-09T12:11:01.759Z,42.17
2022-08-09T12:14:10.228Z,42.08
2022-08-09T12:16:42.874Z,40.70
2022-08-09T12:19:13.498Z,39.51
2022-08-09T12:21:48.678Z,39.46
2022-08-09T12:24:25.175Z,37.65
2022-08-09T12:29:15.614Z,38.18
2022-08-09T12:30:02.065Z,38.70
2022-08-09T12:32:45.088Z,39.87
2022-08-09T12:35:19.215Z,38.41
2022-08-09T12:37:52.244Z,38.62
2022-08-09T12:40:27.505Z,38.43
2022-08-09T12:42:56.851Z,39.70
2022-08-09T12:45:34.381Z,41.01
2022-08-09T12:48:20.213Z,39.78
2022-08-09T12:51:00.248Z,40.44
2022-08-09T12:53:41.342Z,40.47
2022-08-09T12:56:39.973Z,40.84
2022-08-09T12:59:22.151Z,43.13
2022-08-09T13:02:02.845Z,41.31
2022-08-09T13:04:38.274Z,41.36
2022-08-09T13:07:19.825Z,40.07
2022-08-09T13:10:05.841Z,38.95
2022-08-09T13:12:40.143Z,38.19
2022-08-09T13:15:23.098Z,40.30
2022-08-09T13:18:04.721Z,40.61
2022-08-09T13:21:04.154Z,40.92
2022-08-09T13:24:16.340Z,41.69
2022-08-09T13:26:43.681Z,41.21
2022-08-09T13:29:42.093Z,41.42
2022-08-09T13:32:16.241Z,41.55
2022-08-09T13:34:48.564Z,40.57
2022-08-09T13:37:50.478Z,41.42
2022-08-09T13:41:55.142Z,42.01
2022-08-09T13:42:59.132Z,41.41
2022-08-09T13:45:32.572Z,40.90
2022-08-09T13:48:16.222Z,42.12
2022-08-09T13:50:44.900Z,41.28
2022-08-09T13:53:16.873Z,42.05
2022-08-09T13:55:47.974Z,42.92
2022-08-09T13:58:16.888Z,42.64
2022-08-09T14:00:50.546Z,41.20
2022-08-09T14:04:02.495Z,40.94
2022-08-09T14:06:19.480Z,40.47
2022-08-09T14:08:55.405Z,41.54
2022-08-09T14:11:23.961Z,41.45
2022-08-09T14:14:22.659Z,40.47
2022-08-09T14:16:41.008Z,40.75
2022-08-09T14:19:09.824Z,40.65
2022-08-09T14:21:38.531Z,40.11
2022-08-09T14:24:18.776Z,41.34
2022-08-09T14:26:55.826Z,41.58
2022-08-09T14:30:34.863Z,41.08
2022-08-09T14:32:16.394Z,41.11
2022-08-09T14:34:55.797Z,40.95
2022-08-09T14:37:28.456Z,40.15
2022-08-09T14:39:57.236Z,40.35
2022-08-09T14:42:31.102Z,41.79
2022-08-09T14:46:46.136Z,42.11
2022-08-09T14:48:02.320Z,43.21
2022-08-09T14:50:35.185Z,42.75
2022-08-09T14:53:13.091Z,41.36
2022-08-09T14:55:49.963Z,41.95
2022-08-09T14:58:19.862Z,42.69
2022-08-09T15:00:51.090Z,42.77
2022-08-09T15:03:21.210Z,43.15
2022-08-09T15:05:53.771Z,43.08
2022-08-09T15:08:25.798Z,42.13
2022-08-09T15:11:01.393Z,41.65
2022-08-09T15:13:48.080Z,42.36
2022-08-09T15:16:23.057Z,40.88
2022-08-09T15:18:59.728Z,41.84
2022-08-09T15:21:56.202Z,42.54
2022-08-09T15:24:23.385Z,41.59
2022-08-09T15:26:55.753Z,41.57
2022-08-09T15:30:55.431Z,41.70
2022-08-09T15:32:29.707Z,43.02
2022-08-09T15:35:00.998Z,42.42
2022-08-09T15:37:56.773Z,42.23
2022-08-09T15:40:32.023Z,42.56
2022-08-09T15:43:02.514Z,43.41
2022-08-09T15:46:08.084Z,43.43
2022-08-09T15:48:28.862Z,43.44
2022-08-09T15:51:01.119Z,43.37
2022-08-09T15:54:03.905Z,43.12
2022-08-09T15:56:21.736Z,43.83
2022-08-09T15:58:58.505Z,43.97
2022-08-09T16:01:27.497Z,44.33
2022-08-09T16:04:00.194Z,44.03
2022-08-09T16:06:34.791Z,44.24
2022-08-09T16:09:06.704Z,44.70
2022-08-09T16:11:35.340Z,44.16
2022-08-09T16:14:07.898Z,44.46
2022-08-09T16:16:41.985Z,43.75
2022-08-09T16:19:14.583Z,44.49
2022-08-09T16:21:51.655Z,44.67
2022-08-09T16:24:33.797Z,44.09
2022-08-09T16:27:05.225Z,44.86
2022-08-09T16:29:37.342Z,44.47
2022-08-09T16:32:49.633Z,44.66
2022-08-09T16:35:07.837Z,44.35
2022-08-09T16:37:56.047Z,44.36
2022-08-09T16:40:29.644Z,45.42
2022-08-09T16:43:09.358Z,45.63
2022-08-09T16:45:43.883Z,45.10
2022-08-09T16:48:39.805Z,46.18
2022-08-09T16:51:08.189Z,45.24
2022-08-09T16:54:22.458Z,45.60
2022-08-09T16:56:35.139Z,45.89
2022-08-09T16:59:10.553Z,45.26
2022-08-09T17:01:42.276Z,45.93
2022-08-09T17:04:25.522Z,46.19
2022-08-09T17:08:45.077Z,46.19
2022-08-09T17:09:47.317Z,45.90
2022-08-09T17:12:17.579Z,46.26
2022-08-09T17:14:48.606Z,46.61
2022-08-09T17:17:26.519Z,46.75
2022-08-09T17:20:28.534Z,47.07
2022-08-09T17:22:51.672Z,46.77
2022-08-09T17:25:23.501Z,47.07
2022-08-09T17:27:55.237Z,46.85
2022-08-09T17:30:30.754Z,47.42
2022-08-09T17:33:05.734Z,46.96
2022-08-09T17:35:51.659Z,47.83
2022-08-09T17:38:32.293Z,46.18
2022-08-09T17:41:05.715Z,44.49
2022-08-09T17:43:37.331Z,43.74
2022-08-09T17:46:09.852Z,43.64
2022-08-09T17:48:46.537Z,43.52
2022-08-09T17:51:22.532Z,44.47
2022-08-09T17:53:55.008Z,43.40
2022-08-09T17:56:32.447Z,43.23
2022-08-09T17:59:09.245Z,43.94
2022-08-09T18:02:11.717Z,44.11
2022-08-09T18:04:33.078Z,43.62
2022-08-09T18:07:07.473Z,43.60
2022-08-09T18:09:41.942Z,43.79
2022-08-09T18:12:19.326Z,43.80
2022-08-09T18:14:56.645Z,44.03
2022-08-09T18:18:02.389Z,43.32
2022-08-09T18:21:00.102Z,42.92
2022-08-09T18:23:08.305Z,42.72
2022-08-09T18:25:58.138Z,41.80
2022-08-09T18:30:40.356Z,41.02
2022-08-09T18:31:32.245Z,41.38
2022-08-09T18:34:08.956Z,40.94
2022-08-09T18:36:38.596Z,41.08
2022-08-09T18:39:11.133Z,41.05
2022-08-09T18:42:14.020Z,40.99
2022-08-09T18:44:45.465Z,41.06
2022-08-09T18:47:19.502Z,41.50
2022-08-09T18:49:54.236Z,40.84
2022-08-09T18:52:24.867Z,40.91
2022-08-09T18:55:05.566Z,40.78
2022-08-09T18:57:45.434Z,40.99
2022-08-09T19:00:20.213Z,40.30
2022-08-09T19:02:51.293Z,40.88
2022-08-09T19:05:28.696Z,40.69
2022-08-09T19:08:19.625Z,40.79
2022-08-09T19:10:50.678Z,40.97
2022-08-09T19:13:23.632Z,41.38
2022-08-09T19:16:09.191Z,40.98
2022-08-09T19:18:44.321Z,41.69
2022-08-09T19:21:15.455Z,41.83
2022-08-09T19:24:31.980Z,41.80
2022-08-09T19:26:38.575Z,41.97
2022-08-09T19:29:18.418Z,42.13
2022-08-09T19:31:51.451Z,41.98
2022-08-09T19:34:24.830Z,42.07
2022-08-09T19:37:00.131Z,42.00
2022-08-09T19:40:02.597Z,42.14
2022-08-09T19:42:20.431Z,42.84
2022-08-09T19:44:57.761Z,42.25
2022-08-09T19:47:27.467Z,43.11
2022-08-09T19:50:08.331Z,42.93
2022-08-09T19:52:52.042Z,43.06
2022-08-09T19:55:30.813Z,43.27
2022-08-09T19:58:16.351Z,43.76
2022-08-09T20:00:47.600Z,43.47
2022-08-09T20:04:07.181Z,43.64
2022-08-09T20:06:22.749Z,43.92
2022-08-09T20:08:56.796Z,43.84
2022-08-09T20:11:43.173Z,44.47
2022-08-09T20:14:15.735Z,44.29
2022-08-09T20:16:54.011Z,44.44
2022-08-09T20:19:47.880Z,44.08
2022-08-09T20:22:14.844Z,44.83
2022-08-09T20:24:51.370Z,44.89
2022-08-09T20:27:24.103Z,44.71
2022-08-09T20:29:52.783Z,45.08
2022-08-09T20:32:30.186Z,45.28
2022-08-09T20:35:02.955Z,44.66
2022-08-09T20:38:21.868Z,45.01
2022-08-09T20:40:28.087Z,45.31
2022-08-09T20:43:17.889Z,45.52
2022-08-09T20:45:59.709Z,44.98
2022-08-09T20:48:32.050Z,45.87
2022-08-09T20:51:02.917Z,44.96
2022-08-09T20:53:36.704Z,46.00
2022-08-09T20:56:21.302Z,45.44
2022-08-09T20:58:54.268Z,45.83
2022-08-09T21:01:35.121Z,46.10
2022-08-09T21:05:51.412Z,45.60
2022-08-09T21:07:13.026Z,45.99
2022-08-09T21:09:56.643Z,46.72
2022-08-09T21:15:23.702Z,46.85
2022-08-09T21:18:21.163Z,46.81
2022-08-09T21:20:54.406Z,46.93
2022-08-09T21:23:35.954Z,47.30
2022-08-09T21:26:15.526Z,48.05
2022-08-09T21:28:55.663Z,48.29
2022-08-09T21:31:48.704Z,47.75
2022-08-09T21:34:28.554Z,47.94
2022-08-09T21:36:58.060Z,47.26
2022-08-09T21:39:27.785Z,47.38
2022-08-09T21:42:12.079Z,48.00
2022-08-09T21:44:42.838Z,47.64
2022-08-09T21:47:18.249Z,48.40
2022-08-09T21:49:48.299Z,47.34
2022-08-09T21:52:20.711Z,48.41
2022-08-09T21:55:02.852Z,48.22
2022-08-09T21:57:59.238Z,49.08
2022-08-09T22:00:36.637Z,49.05
2022-08-09T22:03:19.124Z,49.37
2022-08-09T22:05:55.715Z,49.04
2022-08-09T22:08:26.745Z,49.28
2022-08-09T22:11:05.083Z,49.43
2022-08-09T22:13:45.159Z,49.39
2022-08-09T22:16:13.548Z,48.17
2022-08-09T22:18:54.821Z,48.30
2022-08-09T22:21:45.337Z,49.19
2022-08-09T22:24:21.022Z,49.78
2022-08-09T22:26:54.992Z,49.44
2022-08-09T22:29:32.242Z,49.33
2022-08-09T22:32:30.214Z,49.76
2022-08-09T22:35:06.324Z,50.17
2022-08-09T22:37:49.473Z,50.42
2022-08-09T22:40:36.468Z,50.44
2022-08-09T22:43:08.711Z,50.17
2022-08-09T22:48:10.774Z,50.05
2022-08-09T22:48:36.014Z,49.49
2022-08-09T22:51:10.963Z,50.67
2022-08-09T22:54:02.072Z,51.07
2022-08-09T22:56:33.907Z,51.94
2022-08-09T22:59:05.978Z,52.00
2022-08-09T23:01:53.644Z,51.72
2022-08-09T23:04:22.127Z,52.53
2022-08-09T23:07:16.170Z,52.19
2022-08-09T23:09:44.666Z,52.18
2022-08-09T23:12:13.147Z,53.29
2022-08-09T23:14:44.399Z,53.10
2022-08-09T23:17:13.971Z,53.41
2022-08-09T23:20:06.933Z,53.10
2022-08-09T23:22:30.900Z,53.08
2022-08-09T23:24:59.339Z,52.97
2022-08-09T23:27:27.781Z,51.74
2022-08-09T23:29:56.177Z,52.01
2022-08-09T23:32:25.695Z,53.34
2022-08-09T23:34:54.093Z,53.83
2022-08-09T23:37:25.490Z,55.17
2022-08-09T23:39:54.108Z,55.35
2022-08-09T23:42:22.469Z,55.78
2022-08-09T23:44:51.970Z,56.47
2022-08-09T23:47:20.415Z,55.76
2022-08-09T23:49:48.805Z,55.92
2022-08-09T23:52:17.276Z,56.33
2022-08-09T23:54:46.822Z,56.64
2022-08-09T23:57:18.593Z,55.59
